KAGC/AGC METAR and TAF weather

Enter ICAO airport designator
Station Type Date Time Source
KAGC METAR 2021/01/17 18:20 UTC NOAA

KAGC 171820Z 23009KT 2 1/2SM -SN BR SCT009 BKN013 OVC032 01/M01 A2969 RMK AO2 P0000 T00111006


Station Type Date Time Source
KAGC Decoded METAR 2021/01/17 18:20 UTC NOAA

PITTSBURGH ALLEGHENY CTY., PA, United States (KAGC) 40-21N 079-55W 389M
Jan 17, 2021 - 01:20 PM EST / 2021.01.17 1820 UTC
Wind: from the SW (230 degrees) at 10 MPH (9 KT):0
Visibility: 2 1/2 mile(s):0
Sky conditions: overcast
Weather: light snow; mist
Precipitation last hour: A trace
Temperature: 34.0 F (1.1 C)
Windchill: 26 F (-3 C):1
Dew Point: 30.9 F (-0.6 C)
Relative Humidity: 88%
Pressure (altimeter): 29.69 in. Hg (1005 hPa)
ob: KAGC 171820Z 23009KT 2 1/2SM -SN BR SCT009 BKN013 OVC032 01/M01 A2969 RMK AO2 P0000 T00111006
cycle: 18

Station Type Date Time Source
KAGC TAF 2021/01/17 18:57 UTC NOAA

TAF COR KAGC 171757Z 1718/1818 24010KT 2SM -SN OVC012
FM171900 25010KT 4SM -SN OVC015
FM172200 23005KT 2SM -SHSN OVC008
FM180600 25005KT 3SM -SHSN OVC008

Example: see airport list